createdAt,value
2019-04-29T00:01:22.885Z,80.04
2019-04-29T00:03:51.000Z,80.01
2019-04-29T00:06:18.275Z,80.50
2019-04-29T00:08:45.572Z,80.89
2019-04-29T00:11:12.843Z,80.89
2019-04-29T00:13:40.126Z,80.90
2019-04-29T00:16:07.409Z,80.93
2019-04-29T00:18:34.447Z,80.86
2019-04-29T00:21:01.481Z,80.88
2019-04-29T00:23:28.524Z,80.84
2019-04-29T00:25:55.555Z,80.82
2019-04-29T00:28:22.680Z,80.91
2019-04-29T00:30:49.721Z,80.98
2019-04-29T00:33:17.068Z,80.92
2019-04-29T00:35:44.426Z,81.02
2019-04-29T00:38:11.647Z,81.45
2019-04-29T00:40:38.677Z,81.53
2019-04-29T00:43:05.946Z,81.61
2019-04-29T00:45:33.001Z,81.86
2019-04-29T00:48:00.267Z,82.16
2019-04-29T00:50:27.313Z,82.47
2019-04-29T00:52:54.593Z,82.68
2019-04-29T00:55:21.890Z,83.00
2019-04-29T00:57:49.177Z,83.20
2019-04-29T01:00:16.219Z,83.51
2019-04-29T01:02:43.249Z,83.74
2019-04-29T01:05:10.539Z,84.02
2019-04-29T01:07:37.816Z,84.16
2019-04-29T01:10:05.107Z,84.44
2019-04-29T01:12:32.135Z,84.38
2019-04-29T01:14:59.176Z,84.41
2019-04-29T01:17:26.208Z,84.33
2019-04-29T01:19:54.223Z,84.47
2019-04-29T01:22:21.247Z,84.55
2019-04-29T01:24:48.299Z,84.62
2019-04-29T01:27:15.327Z,84.61
2019-04-29T01:29:42.642Z,84.57
2019-04-29T01:32:09.910Z,84.53
2019-04-29T01:34:36.950Z,84.51
2019-04-29T01:37:04.223Z,84.47
2019-04-29T01:39:31.268Z,84.39
2019-04-29T01:41:58.298Z,84.39
2019-04-29T01:44:25.349Z,84.35
2019-04-29T01:46:52.628Z,84.45
2019-04-29T01:49:19.890Z,84.59
2019-04-29T01:51:46.935Z,84.66
2019-04-29T01:54:13.964Z,84.72
2019-04-29T01:56:41.013Z,84.71
2019-04-29T01:59:08.045Z,84.68
2019-04-29T02:01:35.096Z,84.74
2019-04-29T02:04:02.128Z,84.87
2019-04-29T02:06:29.172Z,84.92
2019-04-29T02:08:56.205Z,84.96
2019-04-29T02:11:23.488Z,84.97
2019-04-29T02:13:50.522Z,85.04
2019-04-29T02:16:17.571Z,85.12
2019-04-29T02:18:44.606Z,85.22
2019-04-29T02:21:11.645Z,85.41
2019-04-29T02:23:39.045Z,85.48
2019-04-29T02:26:06.083Z,85.63
2019-04-29T02:28:33.123Z,85.60
2019-04-29T02:31:00.499Z,85.45
2019-04-29T02:33:27.529Z,85.47
2019-04-29T02:35:54.893Z,85.41
2019-04-29T02:38:21.927Z,85.38
2019-04-29T02:40:48.969Z,85.47
2019-04-29T02:43:15.996Z,85.38
2019-04-29T02:45:43.043Z,85.35
2019-04-29T02:48:10.337Z,85.35
2019-04-29T02:50:37.390Z,85.32
2019-04-29T02:53:04.414Z,85.27
2019-04-29T02:55:31.787Z,85.34
2019-04-29T02:57:58.821Z,85.23
2019-04-29T03:00:25.868Z,85.17
2019-04-29T03:02:52.908Z,85.10
2019-04-29T03:05:19.947Z,85.07
2019-04-29T03:07:47.344Z,85.09
2019-04-29T03:10:14.792Z,85.00
2019-04-29T03:12:41.839Z,84.94
2019-04-29T03:15:09.196Z,84.86
2019-04-29T03:17:36.239Z,84.71
2019-04-29T03:20:03.275Z,84.60
2019-04-29T03:22:30.322Z,84.58
2019-04-29T03:24:57.359Z,84.64
2019-04-29T03:27:24.410Z,84.57
2019-04-29T03:29:51.438Z,84.42
2019-04-29T03:32:18.486Z,84.44
2019-04-29T03:34:45.783Z,84.39
2019-04-29T03:37:12.837Z,84.41
2019-04-29T03:39:39.872Z,84.42
2019-04-29T03:42:07.602Z,84.53
2019-04-29T03:44:35.922Z,84.65
2019-04-29T03:47:02.979Z,84.71
2019-04-29T03:49:30.027Z,84.71
2019-04-29T03:51:57.077Z,84.81
2019-04-29T03:54:24.422Z,84.83
2019-04-29T03:56:51.533Z,85.06
2019-04-29T03:59:19.558Z,85.11
2019-04-29T04:01:46.619Z,85.14
2019-04-29T04:04:13.941Z,85.14
2019-04-29T04:06:41.298Z,85.10
2019-04-29T04:09:08.582Z,85.04
2019-04-29T04:11:35.869Z,85.04
2019-04-29T04:14:03.162Z,84.98
2019-04-29T04:16:30.213Z,84.97
2019-04-29T04:18:57.562Z,84.94
2019-04-29T04:21:24.919Z,84.93
2019-04-29T04:23:51.983Z,84.90
2019-04-29T04:26:19.258Z,84.85
2019-04-29T04:28:46.308Z,84.87
2019-04-29T04:31:13.649Z,84.94
2019-04-29T04:33:40.698Z,84.81
2019-04-29T04:36:07.984Z,84.76
2019-04-29T04:38:35.047Z,84.69
2019-04-29T04:41:02.438Z,84.56
2019-04-29T04:43:29.716Z,84.52
2019-04-29T04:45:56.760Z,84.48
2019-04-29T04:48:24.086Z,84.37
2019-04-29T04:50:51.437Z,84.23
2019-04-29T04:53:18.490Z,84.14
2019-04-29T04:55:45.847Z,84.10
2019-04-29T04:58:13.201Z,84.07
2019-04-29T05:00:40.550Z,84.02
2019-04-29T05:03:07.602Z,83.97
2019-04-29T05:05:34.651Z,84.02
2019-04-29T05:08:01.705Z,84.12
2019-04-29T05:10:28.747Z,84.07
2019-04-29T05:12:56.102Z,83.97
2019-04-29T05:15:23.137Z,84.01
2019-04-29T05:17:53.058Z,83.80
2019-04-29T05:20:18.938Z,83.78
2019-04-29T05:22:50.275Z,83.72
2019-04-29T05:25:17.312Z,83.52
2019-04-29T05:27:44.362Z,83.48
2019-04-29T05:30:11.637Z,83.28
2019-04-29T05:32:38.685Z,83.11
2019-04-29T05:35:05.979Z,82.86
2019-04-29T05:37:33.018Z,82.63
2019-04-29T05:40:00.382Z,82.08
2019-04-29T05:42:27.418Z,82.00
2019-04-29T05:44:54.469Z,81.45
2019-04-29T05:47:21.510Z,81.21
2019-04-29T05:49:48.881Z,80.90
2019-04-29T05:52:15.927Z,80.51
2019-04-29T05:54:42.979Z,79.80
2019-04-29T05:57:10.268Z,79.40
2019-04-29T05:59:37.322Z,79.16
2019-04-29T06:02:04.634Z,78.62
2019-04-29T06:04:31.692Z,78.75
2019-04-29T06:06:58.732Z,78.13
2019-04-29T06:09:26.091Z,78.30
2019-04-29T06:11:53.130Z,77.84
2019-04-29T06:14:22.155Z,77.88
2019-04-29T06:16:52.552Z,77.27
2019-04-29T06:19:18.473Z,77.27
2019-04-29T06:21:45.512Z,77.05
2019-04-29T06:24:12.800Z,76.77
2019-04-29T06:26:40.129Z,76.21
2019-04-29T06:29:07.185Z,75.43
2019-04-29T06:31:39.774Z,75.37
2019-04-29T06:34:07.138Z,74.59
2019-04-29T06:36:34.465Z,74.35
2019-04-29T06:39:01.826Z,74.13
2019-04-29T06:41:30.420Z,73.49
2019-04-29T06:44:00.669Z,73.65
2019-04-29T06:46:26.205Z,72.71
2019-04-29T06:48:53.493Z,72.85
2019-04-29T06:51:20.620Z,72.37
2019-04-29T06:59:22.577Z,71.29
2019-04-29T07:01:49.613Z,70.69
2019-04-29T07:04:16.666Z,70.68
2019-04-29T07:06:56.802Z,69.04
2019-04-29T07:09:12.731Z,68.44
2019-04-29T07:11:40.074Z,67.56
2019-04-29T07:14:07.393Z,66.41
2019-04-29T07:16:34.755Z,65.50
2019-04-29T07:19:02.114Z,63.67
2019-04-29T07:21:29.158Z,62.76
2019-04-29T07:23:56.195Z,62.06
2019-04-29T07:26:23.248Z,63.14
2019-04-29T07:28:53.317Z,62.27
2019-04-29T07:31:19.049Z,62.57
2019-04-29T07:33:48.212Z,61.67
2019-04-29T07:36:18.728Z,61.30
2019-04-29T07:38:46.523Z,61.13
2019-04-29T07:41:14.277Z,60.86
2019-04-29T07:43:43.050Z,60.26
2019-04-29T07:46:10.570Z,59.49
2019-04-29T07:48:41.847Z,59.59
2019-04-29T07:51:06.694Z,59.39
2019-04-29T07:53:38.764Z,59.44
2019-04-29T07:56:06.364Z,58.86
2019-04-29T07:58:31.918Z,58.08
2019-04-29T08:00:58.970Z,57.97
2019-04-29T08:03:26.005Z,57.61
2019-04-29T08:05:53.053Z,57.29
2019-04-29T08:08:21.218Z,56.80
2019-04-29T08:10:56.076Z,56.55
2019-04-29T08:13:17.892Z,56.55
2019-04-29T08:15:45.297Z,54.91
2019-04-29T08:18:16.268Z,53.57
2019-04-29T08:20:41.840Z,52.89
2019-04-29T08:23:09.108Z,51.15
2019-04-29T08:25:36.406Z,50.34
2019-04-29T08:28:03.452Z,50.51
2019-04-29T08:30:30.511Z,48.64
2019-04-29T08:32:57.546Z,47.67
2019-04-29T08:35:24.595Z,47.33
2019-04-29T08:37:51.637Z,47.67
2019-04-29T08:40:18.680Z,45.51
2019-04-29T08:42:46.926Z,45.39
2019-04-29T08:45:15.710Z,45.80
2019-04-29T08:47:43.065Z,44.06
2019-04-29T08:50:11.172Z,44.14
2019-04-29T08:52:38.492Z,44.07
2019-04-29T08:55:05.858Z,44.17
2019-04-29T09:00:04.993Z,43.73
2019-04-29T09:02:35.046Z,43.57
2019-04-29T09:05:01.133Z,43.05
2019-04-29T09:07:28.182Z,43.31
2019-04-29T09:09:56.136Z,43.02
2019-04-29T09:12:29.019Z,42.94
2019-04-29T09:14:52.801Z,44.00
2019-04-29T09:17:20.883Z,43.27
2019-04-29T09:19:48.344Z,43.25
2019-04-29T09:22:15.613Z,43.09
2019-04-29T09:24:43.516Z,42.23
2019-04-29T09:27:12.041Z,42.38
2019-04-29T09:29:39.371Z,42.68
2019-04-29T09:32:06.720Z,42.39
2019-04-29T09:34:34.731Z,42.07
2019-04-29T09:37:01.774Z,42.26
2019-04-29T09:39:42.438Z,41.85
2019-04-29T09:41:58.998Z,40.30
2019-04-29T09:44:26.368Z,40.87
2019-04-29T09:46:53.721Z,42.04
2019-04-29T09:49:20.766Z,42.13
2019-04-29T09:51:48.076Z,42.48
2019-04-29T09:54:16.245Z,43.56
2019-04-29T09:56:44.351Z,43.88
2019-04-29T09:59:11.630Z,44.82
2019-04-29T10:01:38.920Z,44.22
2019-04-29T10:04:05.961Z,44.60
2019-04-29T10:06:33.280Z,44.16
2019-04-29T10:09:00.334Z,44.74
2019-04-29T10:11:29.322Z,46.19
2019-04-29T10:13:56.380Z,46.72
2019-04-29T10:16:23.829Z,46.80
2019-04-29T10:18:50.888Z,46.61
2019-04-29T10:21:21.880Z,44.33
2019-04-29T10:23:46.923Z,44.52
2019-04-29T10:26:13.959Z,44.26
2019-04-29T10:28:41.015Z,43.39
2019-04-29T10:31:08.056Z,43.04
2019-04-29T10:33:35.415Z,41.93
2019-04-29T10:36:02.787Z,42.95
2019-04-29T10:38:30.006Z,43.33
2019-04-29T10:41:00.580Z,42.19
2019-04-29T10:43:26.284Z,41.13
2019-04-29T10:45:53.323Z,42.45
2019-04-29T10:48:20.365Z,41.86
2019-04-29T10:50:52.054Z,42.07
2019-04-29T10:53:18.043Z,42.48
2019-04-29T10:55:45.607Z,40.82
2019-04-29T10:58:14.003Z,39.57
2019-04-29T11:00:41.046Z,39.29
2019-04-29T11:03:08.100Z,37.37
2019-04-29T11:05:35.205Z,37.87
2019-04-29T11:08:04.272Z,39.39
2019-04-29T11:10:31.888Z,38.23
2019-04-29T11:12:59.238Z,36.37
2019-04-29T11:15:30.633Z,36.80
2019-04-29T11:17:59.339Z,36.12
2019-04-29T11:20:24.844Z,35.29
2019-04-29T11:22:52.369Z,35.37
2019-04-29T11:25:19.709Z,35.10
2019-04-29T11:27:47.074Z,35.39
2019-04-29T11:30:14.415Z,35.36
2019-04-29T11:32:41.774Z,34.52
2019-04-29T11:35:08.820Z,35.04
2019-04-29T11:37:36.193Z,35.42
2019-04-29T11:40:03.239Z,34.57
2019-04-29T11:42:31.873Z,34.94
2019-04-29T11:45:01.890Z,34.97
2019-04-29T11:47:28.468Z,34.05
2019-04-29T11:49:55.522Z,34.16
2019-04-29T11:52:23.630Z,33.70
2019-04-29T11:54:51.664Z,33.27
2019-04-29T11:57:18.712Z,32.84
2019-04-29T11:59:45.764Z,33.87
2019-04-29T12:02:12.797Z,32.90
2019-04-29T12:04:42.148Z,32.74
2019-04-29T12:07:08.898Z,32.52
2019-04-29T12:09:35.952Z,32.31
2019-04-29T12:12:02.988Z,32.74
2019-04-29T12:14:33.797Z,33.24
2019-04-29T12:16:59.120Z,33.56
2019-04-29T12:19:26.172Z,33.79
2019-04-29T12:21:53.478Z,32.37
2019-04-29T12:24:20.526Z,30.87
2019-04-29T12:26:47.571Z,31.75
2019-04-29T12:29:18.369Z,31.83
2019-04-29T12:31:44.877Z,32.91
2019-04-29T12:34:13.223Z,32.95
2019-04-29T12:36:54.629Z,31.98
2019-04-29T12:39:09.695Z,32.51
2019-04-29T12:41:48.192Z,33.36
2019-04-29T12:44:05.475Z,33.16
2019-04-29T12:46:32.866Z,31.69
2019-04-29T12:49:03.517Z,31.49
2019-04-29T12:51:28.987Z,32.49
2019-04-29T12:53:56.017Z,33.00
2019-04-29T12:56:25.961Z,34.18
2019-04-29T12:58:55.136Z,34.43
2019-04-29T13:01:20.547Z,34.85
2019-04-29T13:03:47.933Z,35.12
2019-04-29T13:06:14.992Z,35.97
2019-04-29T13:08:42.340Z,35.40
2019-04-29T13:11:09.714Z,35.84
2019-04-29T13:13:36.751Z,35.88
2019-04-29T13:16:04.097Z,35.98
2019-04-29T13:18:31.137Z,36.09
2019-04-29T13:21:09.477Z,37.40
2019-04-29T13:23:34.682Z,38.83
2019-04-29T13:25:57.845Z,37.87
2019-04-29T13:28:30.253Z,39.12
2019-04-29T13:30:56.943Z,39.57
2019-04-29T13:33:23.469Z,39.51
2019-04-29T13:35:50.822Z,40.11
2019-04-29T13:38:17.869Z,40.10
2019-04-29T13:40:45.996Z,41.57
2019-04-29T13:43:13.314Z,41.89
2019-04-29T13:45:40.374Z,44.17
2019-04-29T13:48:09.058Z,47.09
2019-04-29T13:50:39.815Z,48.82
2019-04-29T13:53:05.331Z,48.61
2019-04-29T13:55:47.954Z,49.07
2019-04-29T13:58:01.435Z,51.57
2019-04-29T14:00:28.777Z,53.73
2019-04-29T14:02:59.322Z,54.36
2019-04-29T14:05:24.920Z,55.27
2019-04-29T14:07:52.710Z,56.39
2019-04-29T14:10:20.707Z,56.12
2019-04-29T14:12:51.129Z,55.17
2019-04-29T14:15:16.798Z,55.71
2019-04-29T14:17:44.918Z,54.89
2019-04-29T14:20:15.756Z,55.19
2019-04-29T14:22:41.024Z,55.32
2019-04-29T14:25:08.371Z,55.06
2019-04-29T14:27:35.748Z,55.16
2019-04-29T14:30:06.847Z,55.24
2019-04-29T14:32:37.909Z,55.18
2019-04-29T14:35:02.053Z,54.18
2019-04-29T14:37:29.654Z,53.19
2019-04-29T14:39:57.023Z,52.79
2019-04-29T14:42:25.642Z,52.27
2019-04-29T14:44:53.099Z,52.41
2019-04-29T14:47:20.402Z,52.16
2019-04-29T14:49:47.766Z,52.13
2019-04-29T14:52:15.076Z,50.73
2019-04-29T14:54:43.606Z,50.91
2019-04-29T14:57:10.952Z,51.63
2019-04-29T14:59:38.227Z,50.89
2019-04-29T15:04:40.910Z,48.11
2019-04-29T15:07:08.398Z,46.86
2019-04-29T15:09:46.583Z,47.77
2019-04-29T15:12:04.717Z,47.36
2019-04-29T15:14:32.341Z,47.58
2019-04-29T15:16:59.576Z,47.52
2019-04-29T15:19:27.075Z,49.04
2019-04-29T15:21:54.341Z,50.87
2019-04-29T15:24:21.812Z,50.50
2019-04-29T15:26:49.807Z,50.59
2019-04-29T15:29:17.235Z,51.17
2019-04-29T15:31:47.183Z,52.60
2019-04-29T15:34:14.583Z,55.80
2019-04-29T15:36:42.126Z,56.07
2019-04-29T15:39:11.622Z,58.82
2019-04-29T15:41:38.861Z,60.99
2019-04-29T15:44:08.130Z,61.58
2019-04-29T15:46:46.383Z,62.99
2019-04-29T15:49:03.552Z,65.07
2019-04-29T15:51:30.891Z,65.48
2019-04-29T15:53:58.186Z,66.19
2019-04-29T15:56:28.692Z,67.40
2019-04-29T15:58:54.232Z,67.23
2019-04-29T16:01:27.293Z,67.04
2019-04-29T16:03:54.854Z,68.56
2019-04-29T16:06:21.384Z,68.96
2019-04-29T16:08:48.238Z,69.77
2019-04-29T16:11:15.271Z,69.65
2019-04-29T16:13:47.750Z,71.07
2019-04-29T16:16:11.404Z,70.17
2019-04-29T16:18:38.783Z,70.87
2019-04-29T16:21:05.812Z,71.96
2019-04-29T16:23:38.655Z,71.36
2019-04-29T16:26:02.361Z,71.92
2019-04-29T16:28:31.564Z,72.75
2019-04-29T16:30:58.138Z,73.35
2019-04-29T16:33:25.187Z,73.41
2019-04-29T16:35:52.219Z,74.13
2019-04-29T16:38:20.768Z,74.44
2019-04-29T16:40:48.766Z,74.71
2019-04-29T16:43:16.201Z,75.54
2019-04-29T16:45:44.219Z,75.82
2019-04-29T16:48:13.681Z,76.73
2019-04-29T16:50:41.028Z,76.73
2019-04-29T16:53:08.385Z,76.67
2019-04-29T16:55:42.898Z,77.29
2019-04-29T16:58:07.697Z,77.40
2019-04-29T17:00:33.499Z,77.72
2019-04-29T17:03:00.530Z,78.26
2019-04-29T17:05:27.584Z,78.26
2019-04-29T17:07:54.611Z,78.93
2019-04-29T17:10:21.663Z,79.84
2019-04-29T17:15:37.698Z,80.33
2019-04-29T17:18:05.099Z,80.68
2019-04-29T17:20:32.434Z,80.69
2019-04-29T17:22:59.781Z,80.93
2019-04-29T17:25:26.827Z,81.59
2019-04-29T17:27:54.211Z,81.79
2019-04-29T17:30:21.530Z,81.71
2019-04-29T17:32:50.018Z,82.14
2019-04-29T17:35:21.460Z,82.09
2019-04-29T17:37:46.639Z,82.49
2019-04-29T17:40:19.572Z,82.53
2019-04-29T17:43:00.792Z,82.37
2019-04-29T17:45:32.596Z,82.43
2019-04-29T17:47:59.785Z,82.82
2019-04-29T17:50:30.719Z,83.47
2019-04-29T17:53:09.139Z,83.19
2019-04-29T17:55:40.238Z,84.00
2019-04-29T17:58:07.303Z,84.35
2019-04-29T18:03:12.504Z,84.85
2019-04-29T18:05:54.440Z,85.31
2019-04-29T18:08:15.344Z,85.58
2019-04-29T18:10:42.393Z,85.98
2019-04-29T18:13:18.775Z,86.06
2019-04-29T18:18:17.674Z,86.31
2019-04-29T18:20:47.178Z,86.54
2019-04-29T18:23:18.791Z,86.68
2019-04-29T18:25:44.842Z,86.70
2019-04-29T18:28:13.896Z,86.97
2019-04-29T18:30:41.216Z,87.39
2019-04-29T18:33:08.981Z,87.36
2019-04-29T18:43:23.067Z,87.94
2019-04-29T18:48:22.014Z,88.36
2019-04-29T18:50:49.187Z,88.03
2019-04-29T18:53:22.566Z,88.24
2019-04-29T18:58:28.765Z,88.46
2019-04-29T19:00:56.477Z,88.43
2019-04-29T19:03:25.318Z,88.77
2019-04-29T19:08:32.068Z,88.42
2019-04-29T19:13:37.815Z,88.76
2019-04-29T19:16:12.069Z,88.81
2019-04-29T19:18:38.924Z,88.83
2019-04-29T19:21:10.496Z,89.14
2019-04-29T19:23:38.651Z,89.07
2019-04-29T19:26:05.928Z,89.10
2019-04-29T19:28:45.429Z,89.35
2019-04-29T19:33:50.571Z,89.28
2019-04-29T19:36:21.491Z,89.31
2019-04-29T19:38:47.393Z,89.33
2019-04-29T19:46:36.751Z,89.70
2019-04-29T19:49:07.419Z,89.78
2019-04-29T19:51:32.111Z,89.86
2019-04-29T19:54:09.245Z,89.72
2019-04-29T19:56:40.956Z,89.77
2019-04-29T19:59:13.750Z,89.91
2019-04-29T20:01:49.666Z,89.81
2019-04-29T20:04:20.914Z,89.83
2019-04-29T20:06:48.210Z,89.83
2019-04-29T20:09:21.389Z,89.90
2019-04-29T20:11:48.394Z,89.87
2019-04-29T20:14:20.693Z,89.89
2019-04-29T20:19:34.231Z,89.92
2019-04-29T20:22:05.557Z,89.98
2019-04-29T20:24:30.694Z,90.12
2019-04-29T20:27:00.192Z,90.28
2019-04-29T20:29:33.801Z,90.21
2019-04-29T20:34:46.080Z,90.10
2019-04-29T20:37:16.213Z,89.97
2019-04-29T20:39:45.433Z,90.13
2019-04-29T20:44:55.219Z,90.12
2019-04-29T20:47:37.282Z,90.07
2019-04-29T20:50:08.977Z,90.21
2019-04-29T20:52:36.692Z,90.23
2019-04-29T20:55:06.507Z,90.40
2019-04-29T20:57:37.534Z,90.40
2019-04-29T21:00:11.901Z,90.44
2019-04-29T21:02:41.579Z,90.48
2019-04-29T21:05:23.319Z,90.49
2019-04-29T21:10:24.218Z,90.46
2019-04-29T21:12:51.284Z,90.49
2019-04-29T21:15:36.183Z,90.53
2019-04-29T21:18:10.435Z,90.63
2019-04-29T21:20:39.988Z,90.76
2019-04-29T21:23:10.421Z,90.61
2019-04-29T21:25:38.482Z,90.64
2019-04-29T21:28:05.757Z,90.66
2019-04-29T21:30:42.274Z,90.74
2019-04-29T21:35:37.959Z,90.92
2019-04-29T21:38:05.204Z,90.84
2019-04-29T21:40:35.067Z,90.81
2019-04-29T21:43:08.103Z,90.78
2019-04-29T21:45:48.364Z,90.88
2019-04-29T21:48:16.744Z,90.86
2019-04-29T21:50:44.935Z,90.79
2019-04-29T21:53:15.085Z,90.96
2019-04-29T21:55:45.778Z,91.06
2019-04-29T21:58:17.122Z,91.02
2019-04-29T22:00:48.673Z,91.00
2019-04-29T22:03:26.509Z,91.05
2019-04-29T22:08:45.116Z,91.03
2019-04-29T22:11:19.646Z,91.04
2019-04-29T22:13:46.709Z,90.98
2019-04-29T22:16:18.254Z,91.03
2019-04-29T22:18:51.768Z,91.13
2019-04-29T22:21:25.912Z,91.23
2019-04-29T22:23:52.841Z,91.21
2019-04-29T22:26:23.418Z,91.11
2019-04-29T22:31:26.825Z,91.14
2019-04-29T22:36:43.356Z,91.06
2019-04-29T22:39:10.713Z,91.04
2019-04-29T22:41:37.752Z,91.11
2019-04-29T22:44:04.978Z,91.14
2019-04-29T22:46:32.017Z,91.14
2019-04-29T22:48:59.070Z,91.15
2019-04-29T22:51:26.462Z,91.15
2019-04-29T22:53:55.688Z,91.23
2019-04-29T22:56:22.911Z,91.27
2019-04-29T22:58:50.289Z,91.34
2019-04-29T23:01:17.768Z,91.24
2019-04-29T23:03:45.148Z,91.35
2019-04-29T23:06:15.721Z,91.47
2019-04-29T23:08:44.799Z,91.50
2019-04-29T23:11:12.059Z,91.53
2019-04-29T23:13:39.101Z,91.53
2019-04-29T23:16:06.159Z,91.51
2019-04-29T23:18:41.619Z,91.63
2019-04-29T23:21:03.934Z,91.61
2019-04-29T23:23:33.752Z,91.59
2019-04-29T23:26:04.192Z,91.56
2019-04-29T23:28:28.811Z,91.49
2019-04-29T23:30:56.065Z,91.49
2019-04-29T23:33:24.550Z,91.49
2019-04-29T23:35:52.090Z,91.47
2019-04-29T23:38:19.365Z,91.54
2019-04-29T23:40:49.746Z,91.53
2019-04-29T23:43:15.797Z,91.64
2019-04-29T23:45:42.806Z,91.65
2019-04-29T23:48:10.089Z,91.59
2019-04-29T23:50:37.142Z,91.69
2019-04-29T23:53:05.786Z,91.63
2019-04-29T23:55:33.197Z,91.66
2019-04-29T23:58:03.729Z,91.63
